createdAt,value
2023-02-11T00:00:14.900Z,82.00
2023-02-11T00:05:38.403Z,77.00
2023-02-11T00:10:42.179Z,70.67
2023-02-11T00:15:45.553Z,73.00
2023-02-11T00:20:51.422Z,79.00
2023-02-11T00:26:13.282Z,70.00
2023-02-11T00:31:23.702Z,65.00
2023-02-11T00:36:29.275Z,72.33
2023-02-11T00:41:33.181Z,72.50
2023-02-11T00:46:40.666Z,68.00
2023-02-11T00:51:46.982Z,71.00
2023-02-11T00:56:54.994Z,69.50
2023-02-11T01:02:01.254Z,69.00
2023-02-11T01:07:14.011Z,67.33
2023-02-11T01:12:20.306Z,70.33
2023-02-11T01:17:39.401Z,67.67
2023-02-11T01:22:51.963Z,63.67
2023-02-11T01:27:55.333Z,68.00
2023-02-11T01:32:59.414Z,59.50
2023-02-11T01:38:08.705Z,71.33
2023-02-11T01:43:20.202Z,69.00
2023-02-11T01:48:42.915Z,58.50
2023-02-11T01:54:05.571Z,64.50
2023-02-11T01:59:18.052Z,52.00
2023-02-11T02:04:23.412Z,55.00
2023-02-11T02:09:35.300Z,60.00
2023-02-11T02:14:41.682Z,52.50
2023-02-11T02:20:17.557Z,42.00
2023-02-11T02:25:59.477Z,53.50
2023-02-11T02:31:18.679Z,70.00
2023-02-11T02:36:35.063Z,59.00
2023-02-11T02:41:39.494Z,62.00
2023-02-11T02:46:42.803Z,48.00
2023-02-11T02:51:53.182Z,60.50
2023-02-11T02:57:48.551Z,55.00
2023-02-11T03:03:16.730Z,43.00
2023-02-11T03:08:26.361Z,57.00
2023-02-11T03:13:33.826Z,53.00
2023-02-11T03:18:41.095Z,38.00
2023-02-11T03:23:50.903Z,50.00
2023-02-11T03:29:16.115Z,59.33
2023-02-11T03:34:23.993Z,60.00
2023-02-11T03:39:36.969Z,56.50
2023-02-11T03:44:48.821Z,60.00
2023-02-11T03:49:55.068Z,55.00
2023-02-11T03:55:00.824Z,57.50
2023-02-11T04:00:04.847Z,49.50
2023-02-11T04:05:16.472Z,35.00
2023-02-11T04:10:20.075Z,50.67
2023-02-11T04:15:24.037Z,43.00
2023-02-11T04:20:27.598Z,48.00
2023-02-11T04:25:31.771Z,40.00
2023-02-11T04:30:35.134Z,50.67
2023-02-11T04:35:41.533Z,47.50
2023-02-11T04:40:45.660Z,49.00
2023-02-11T04:45:49.560Z,47.00
2023-02-11T04:50:53.587Z,38.33
2023-02-11T04:55:57.281Z,46.00
2023-02-11T05:01:10.196Z,41.33
2023-02-11T05:06:13.693Z,49.00
2023-02-11T05:11:22.186Z,46.50
2023-02-11T05:16:37.113Z,47.50
2023-02-11T05:21:50.352Z,57.33
2023-02-11T05:27:00.469Z,42.00
2023-02-11T05:32:04.279Z,45.00
2023-02-11T05:37:15.852Z,34.00
2023-02-11T05:42:33.743Z,35.33
2023-02-11T05:47:39.464Z,34.00
2023-02-11T05:52:43.922Z,41.50
2023-02-11T05:57:47.489Z,42.50
2023-02-11T06:02:55.050Z,44.00
2023-02-11T06:07:59.053Z,39.50
2023-02-11T06:13:02.470Z,48.00
2023-02-11T06:18:06.306Z,60.00
2023-02-11T06:23:10.340Z,45.50
2023-02-11T06:28:13.865Z,61.00
2023-02-11T06:33:18.200Z,43.50
2023-02-11T06:38:21.753Z,42.50
2023-02-11T06:43:25.305Z,39.50
2023-02-11T06:48:28.605Z,42.33
2023-02-11T06:53:35.666Z,45.00
2023-02-11T06:58:39.078Z,45.00
2023-02-11T07:03:46.006Z,44.00
2023-02-11T07:08:52.075Z,43.50
2023-02-11T07:14:00.735Z,34.50
2023-02-11T07:19:04.151Z,44.00
2023-02-11T07:24:11.171Z,32.67
2023-02-11T07:29:16.538Z,38.00
2023-02-11T07:34:39.955Z,47.67
2023-02-11T07:39:43.881Z,44.33
2023-02-11T07:44:50.278Z,40.33
2023-02-11T07:49:56.466Z,42.67
2023-02-11T07:55:04.868Z,31.00
2023-02-11T08:00:11.333Z,34.00
2023-02-11T08:05:15.074Z,31.50
2023-02-11T08:10:24.312Z,43.00
2023-02-11T08:15:47.104Z,34.67
2023-02-11T08:20:50.832Z,39.00
2023-02-11T08:26:03.861Z,38.00
2023-02-11T08:31:15.113Z,38.00
2023-02-11T08:36:27.346Z,48.00
2023-02-11T08:41:32.100Z,53.00
2023-02-11T08:46:38.684Z,42.00
2023-02-11T08:51:57.444Z,36.67
2023-02-11T08:57:56.663Z,43.00
2023-02-11T09:03:05.695Z,37.67
2023-02-11T09:08:12.950Z,44.00
2023-02-11T09:14:10.027Z,36.00
2023-02-11T09:20:14.038Z,43.00
2023-02-11T09:25:52.031Z,35.67
2023-02-11T09:32:16.583Z,41.00
2023-02-11T09:37:40.761Z,40.00
2023-02-11T09:43:48.562Z,34.00
2023-02-11T09:49:28.416Z,28.00
2023-02-11T09:54:56.605Z,27.00
2023-02-11T10:00:37.438Z,39.00
2023-02-11T10:06:26.471Z,35.00
2023-02-11T10:12:16.836Z,47.50
2023-02-11T10:18:13.541Z,43.00
2023-02-11T10:23:34.950Z,41.67
2023-02-11T10:28:47.844Z,39.00
2023-02-11T10:34:42.257Z,42.00
2023-02-11T10:39:48.579Z,40.50
2023-02-11T10:45:03.113Z,46.50
2023-02-11T10:50:33.562Z,38.67
2023-02-11T10:55:38.211Z,37.50
2023-02-11T11:01:24.235Z,43.50
2023-02-11T11:06:56.759Z,41.00
2023-02-11T11:12:00.454Z,38.00
2023-02-11T11:17:18.384Z,27.00
2023-02-11T11:22:46.484Z,40.00
2023-02-11T11:27:56.845Z,37.00
2023-02-11T11:33:04.611Z,28.00
2023-02-11T11:38:14.511Z,32.67
2023-02-11T11:43:23.278Z,37.00
2023-02-11T11:48:38.860Z,37.00
2023-02-11T11:54:08.974Z,36.00
2023-02-11T11:59:17.144Z,47.00
2023-02-11T12:04:26.692Z,41.00
2023-02-11T12:09:40.415Z,41.50
2023-02-11T12:15:16.983Z,46.00
2023-02-11T12:20:30.351Z,39.00
2023-02-11T12:26:11.428Z,34.00
2023-02-11T12:31:49.833Z,46.00
2023-02-11T12:37:16.138Z,54.00
2023-02-11T12:42:40.975Z,52.50
2023-02-11T12:47:57.580Z,41.00
2023-02-11T12:53:58.193Z,54.00
2023-02-11T12:59:14.237Z,51.50
2023-02-11T13:04:39.554Z,50.50
2023-02-11T13:09:55.595Z,60.00
2023-02-11T13:15:13.765Z,31.00
2023-02-11T13:20:52.122Z,52.50
2023-02-11T13:26:21.680Z,57.00
2023-02-11T13:31:27.670Z,60.00
2023-02-11T13:36:33.467Z,50.50
2023-02-11T13:41:41.404Z,45.00
2023-02-11T13:46:59.837Z,53.00
2023-02-11T13:52:19.364Z,51.00
2023-02-11T13:57:35.724Z,57.00
2023-02-11T14:03:00.272Z,56.00
2023-02-11T14:08:28.873Z,55.33
2023-02-11T14:13:37.136Z,55.00
2023-02-11T14:18:55.953Z,54.50
2023-02-11T14:24:39.861Z,68.00
2023-02-11T14:30:20.124Z,60.50
2023-02-11T14:36:10.374Z,62.67
2023-02-11T14:41:54.253Z,61.33
2023-02-11T14:47:21.420Z,65.00
2023-02-11T14:52:33.073Z,63.50
2023-02-11T14:57:38.029Z,57.50
2023-02-11T15:02:43.886Z,68.00
2023-02-11T15:07:54.390Z,69.50
2023-02-11T15:12:59.071Z,70.33
2023-02-11T15:18:22.954Z,61.50
2023-02-11T15:23:28.285Z,62.50
2023-02-11T15:28:34.626Z,66.00
2023-02-11T15:33:38.135Z,63.00
2023-02-11T15:38:41.789Z,66.00
2023-02-11T15:43:49.008Z,62.00
2023-02-11T15:48:53.926Z,69.00
2023-02-11T15:54:09.900Z,78.00
2023-02-11T15:59:30.753Z,73.00
2023-02-11T16:04:34.285Z,71.00
2023-02-11T16:09:37.849Z,70.50
2023-02-11T16:14:41.136Z,76.00
2023-02-11T16:19:48.243Z,69.00
2023-02-11T16:24:53.667Z,68.00
2023-02-11T16:29:57.982Z,82.50
2023-02-11T16:35:02.024Z,73.33
2023-02-11T16:40:06.098Z,76.00
2023-02-11T16:45:10.143Z,73.67
2023-02-11T16:50:22.252Z,81.00
2023-02-11T16:55:25.792Z,75.00
2023-02-11T17:00:29.449Z,75.00
2023-02-11T17:05:42.770Z,68.00
2023-02-11T17:10:53.233Z,70.00
2023-02-11T17:16:09.400Z,60.00
2023-02-11T17:21:13.044Z,72.50
2023-02-11T17:26:16.595Z,70.00
2023-02-11T17:31:20.002Z,75.50
2023-02-11T17:36:24.774Z,78.00
2023-02-11T17:41:36.407Z,72.00
2023-02-11T17:46:39.816Z,76.00
2023-02-11T17:51:46.528Z,73.00
2023-02-11T17:56:50.967Z,69.50
2023-02-11T18:01:56.702Z,72.00
2023-02-11T18:07:00.160Z,85.00
2023-02-11T18:12:04.273Z,83.50
2023-02-11T18:17:07.972Z,67.00
2023-02-11T18:22:14.601Z,75.50
2023-02-11T18:27:18.162Z,69.00
2023-02-11T18:32:21.522Z,76.50
2023-02-11T18:37:38.837Z,82.00
2023-02-11T18:42:51.913Z,74.00
2023-02-11T18:47:55.915Z,77.67
2023-02-11T18:52:59.489Z,74.00
2023-02-11T18:58:03.161Z,79.00
2023-02-11T19:03:09.570Z,72.00
2023-02-11T19:08:15.567Z,67.00
2023-02-11T19:13:19.121Z,79.33
2023-02-11T19:18:22.928Z,71.00
2023-02-11T19:23:26.530Z,61.33
2023-02-11T19:28:30.959Z,80.00
2023-02-11T19:33:42.273Z,73.00
2023-02-11T19:38:45.809Z,80.00
2023-02-11T19:43:56.845Z,77.00
2023-02-11T19:49:03.417Z,74.00
2023-02-11T19:54:07.604Z,66.00
2023-02-11T19:59:11.181Z,69.00
2023-02-11T20:04:15.553Z,71.67
2023-02-11T20:09:22.883Z,65.67
2023-02-11T20:14:28.026Z,69.00
2023-02-11T20:19:31.956Z,72.00
2023-02-11T20:24:35.700Z,74.00
2023-02-11T20:29:42.096Z,72.00
2023-02-11T20:34:45.592Z,74.00
2023-02-11T20:39:52.081Z,59.00
2023-02-11T20:44:55.520Z,73.33
2023-02-11T20:49:59.205Z,67.00
2023-02-11T20:55:09.061Z,66.00
2023-02-11T21:00:13.554Z,67.33
2023-02-11T21:05:17.217Z,66.50
2023-02-11T21:10:20.692Z,63.00
2023-02-11T21:15:24.453Z,73.50
2023-02-11T21:20:28.856Z,75.50
2023-02-11T21:25:35.611Z,74.00
2023-02-11T21:30:42.065Z,75.50
2023-02-11T21:35:45.747Z,80.33
2023-02-11T21:40:59.110Z,65.00
2023-02-11T21:46:09.828Z,68.00
2023-02-11T21:51:15.905Z,69.00
2023-02-11T21:56:19.626Z,64.00
2023-02-11T22:01:58.913Z,73.00
2023-02-11T22:07:03.508Z,78.00
2023-02-11T22:12:09.006Z,71.67
2023-02-11T22:17:15.479Z,74.00
2023-02-11T22:22:19.867Z,80.00
2023-02-11T22:27:23.525Z,74.00
2023-02-11T22:32:27.213Z,71.00
2023-02-11T22:37:31.158Z,80.00
2023-02-11T22:42:45.459Z,74.50
2023-02-11T22:47:55.314Z,67.00
2023-02-11T22:53:01.877Z,73.00
2023-02-11T22:58:11.010Z,77.00
2023-02-11T23:03:22.053Z,76.50
2023-02-11T23:08:26.189Z,56.00
2023-02-11T23:13:51.912Z,69.67
2023-02-11T23:18:59.163Z,71.00
2023-02-11T23:24:09.518Z,68.00
2023-02-11T23:29:41.842Z,76.00
2023-02-11T23:34:45.350Z,74.00
2023-02-11T23:39:48.983Z,72.33
2023-02-11T23:44:53.821Z,72.00
2023-02-11T23:50:04.815Z,72.50
2023-02-11T23:55:09.254Z,77.00
